Terminal Aerodrome Forecast
Issued by NWS Twin Cities, MN

Home | Current Version | Previous Version | Text Only | Print | Product List | Glossary Off
Versions: 1 2 3 4 5 6 7 8 9 10 11 12

000
FTUS43 KMPX 021720
TAFEAU
TAF
KEAU 021720Z 0218/0318 16012G20KT P6SM FEW250
     FM030100 16008KT P6SM BKN150
     FM031200 17008KT P6SM OVC050
     FM031500 19012KT P6SM VCSH OVC025=

USA.gov is the U.S. government's official web portal to all federal, state and local government web resources and services.